Terminal Aerodrome Forecast
Issued by NWS Shreveport, LA

Home | Current Version | Previous Version | Text Only | Print | Product List | Glossary On
Versions: 1 2 3 4 5 6 7 8 9 10 11 12 13 14 15 16 17 18
000
FTUS44 KSHV 221100
TAFTYR
TAF
KTYR 221121Z 2212/2312 19010KT P6SM BKN014 OVC020
     FM221600 21013G20KT P6SM OVC013
     FM222100 22010KT P6SM OVC020
     FM230000 29005KT P6SM BKN025
     FM230200 31004KT P6SM SCT030 BKN150 BKN250
     FM230700 03003KT P6SM OVC250=

USA.gov is the U.S. government's official web portal to all federal, state and local government web resources and services.